Fiesta Key, Florida
Current Conditions -  °F | °C
As of 6:53 PM on Monday 22 Dec 2014 (Local Time) from KMTH Reporting Station
Clear Clear  
Wind Chill: 76°   Ceiling: Unl
Heat Index: 76°   Visibility: 10mi
Dew Point: 73°   Wind: 5mph
Humidity: 91%   Direction: NA
Pressure: 29.95"   Gusts: NA
Location:  24.8241°N, 80.818°W
Report Text: KMTH 222353Z AUTO VRB04KT 10SM CLR 24/23 A2995 RMK AO2 SLP141 T02440228 10283 20244 53003
Loading
Personal Weather Stations






























Interactive Weather Map New forecast layout! Learn more

10-Day Weather Forecast

Advertisements
Track Severe Weather on mobile